Time;durP1;ratioP1;P1;durP2;ratioP2;P2;SDS_P1;SDS_P2;PMS_P1;PMS_P2;Temp;Humidity;BMP_temperature;BMP_pressure;BME280_temperature;BME280_humidity;BME280_pressure;Samples;Min_cycle;Max_cycle;Signal;HPM_P1;HPM_P2
2021/11/15 00:02:23;;;;;;;;;36.50;28.50;;;;;10.96;71.35;102065.06;4997968;28;45596;-78
2021/11/15 00:04:49;;;;;;;;;41.25;35.50;;;;;10.95;71.50;102065.03;4997745;28;47292;-79
2021/11/15 00:07:14;;;;;;;;;36.25;30.50;;;;;10.93;71.28;102067.63;4996949;28;45449;-81
2021/11/15 00:09:42;;;;;;;;;33.75;31.75;;;;;10.92;71.45;102057.94;4996748;28;45450;-78
2021/11/15 00:12:08;;;;;;;;;38.25;29.00;;;;;10.92;71.39;102068.50;4980587;28;45254;-79
2021/11/15 00:14:33;;;;;;;;;43.50;33.00;;;;;10.92;71.60;102070.22;4997507;28;47814;-80
2021/11/15 00:16:59;;;;;;;;;41.25;34.25;;;;;10.92;71.59;102070.22;4997326;28;45597;-81
2021/11/15 00:19:24;;;;;;;;;41.25;36.50;;;;;10.91;71.44;102066.69;4997371;28;45330;-79
2021/11/15 00:21:50;;;;;;;;;46.50;35.00;;;;;10.89;71.56;102064.84;4997110;28;45317;-79
2021/11/15 00:24:15;;;;;;;;;34.75;31.50;;;;;10.89;71.48;102070.13;4997319;28;47203;-79
2021/11/15 00:26:41;;;;;;;;;39.00;31.75;;;;;10.88;71.28;102069.25;4996076;28;48563;-82
2021/11/15 00:29:06;;;;;;;;;35.50;27.25;;;;;10.86;71.30;102070.94;4997478;28;50204;-79
2021/11/15 00:31:31;;;;;;;;;34.50;30.50;;;;;10.85;71.26;102070.88;4997328;28;45377;-80
2021/11/15 00:33:57;;;;;;;;;36.00;33.75;;;;;10.83;71.52;102073.50;4996935;28;51972;-81
2021/11/15 00:36:23;;;;;;;;;40.00;33.25;;;;;10.83;71.47;102072.59;4996001;28;45368;-78
2021/11/15 00:38:48;;;;;;;;;41.00;31.75;;;;;10.80;71.28;102077.78;4995917;28;45344;-81
2021/11/15 00:41:14;;;;;;;;;36.25;27.75;;;;;10.79;70.98;102079.53;4997295;28;45322;-77
2021/11/15 00:43:39;;;;;;;;;36.25;28.50;;;;;10.78;71.23;102079.50;4996140;28;46777;-81
2021/11/15 00:46:04;;;;;;;;;34.50;31.00;;;;;10.76;71.40;102079.47;4996961;28;45330;-79
2021/11/15 00:48:30;;;;;;;;;33.25;29.75;;;;;10.72;71.19;102075.81;4996977;28;45403;-79
2021/11/15 00:50:55;;;;;;;;;36.50;33.50;;;;;10.73;71.36;102082.00;4997041;28;49049;-80
2021/11/15 00:53:21;;;;;;;;;36.25;33.00;;;;;10.71;71.41;102078.44;4997013;28;46435;-79
2021/11/15 00:55:46;;;;;;;;;45.00;34.25;;;;;10.71;71.49;102089.88;4996583;28;57611;-79
2021/11/15 00:58:12;;;;;;;;;39.25;31.75;;;;;10.71;71.26;102075.78;4979670;28;45340;-79
2021/11/15 01:00:38;;;;;;;;;37.50;34.50;;;;;10.71;71.23;102091.63;4997087;28;45596;-79
2021/11/15 01:03:06;;;;;;;;;39.25;34.75;;;;;10.69;71.35;102090.66;4995618;28;45484;-79
2021/11/15 01:05:32;;;;;;;;;40.75;30.25;;;;;10.66;71.04;102085.31;4996622;28;45281;-79
2021/11/15 01:07:58;;;;;;;;;39.00;31.00;;;;;10.61;71.28;102092.19;4997032;28;45469;-79
2021/11/15 01:10:23;;;;;;;;;41.50;35.75;;;;;10.61;71.06;102095.72;4996539;28;53172;-79
2021/11/15 01:12:48;;;;;;;;;35.75;28.75;;;;;10.59;71.22;102086.84;4996964;28;46135;-79
2021/11/15 01:15:16;;;;;;;;;45.50;35.50;;;;;10.59;71.07;102092.13;4993817;28;48173;-79
2021/11/15 01:17:42;;;;;;;;;38.75;30.50;;;;;10.53;70.96;102076.09;4996801;28;45220;-81
2021/11/15 01:20:09;;;;;;;;;38.00;35.50;;;;;10.56;71.20;102085.88;4999606;28;45914;-78
2021/11/15 01:22:35;;;;;;;;;33.50;31.00;;;;;10.54;71.12;102084.91;4998789;28;46712;-79
2021/11/15 01:25:00;;;;;;;;;31.25;26.25;;;;;10.53;70.77;102083.13;4999323;28;60878;-78
2021/11/15 01:27:26;;;;;;;;;41.00;32.25;;;;;10.50;70.90;102081.28;5000043;28;45469;-78
2021/11/15 01:29:51;;;;;;;;;37.75;32.75;;;;;10.45;71.18;102074.97;4999073;28;45333;-81
2021/11/15 01:32:17;;;;;;;;;42.00;35.75;;;;;10.41;70.84;102076.59;5000084;28;46276;-80
2021/11/15 01:34:42;;;;;;;;;43.00;33.00;;;;;10.45;70.88;102069.69;4999103;28;57124;-80
2021/11/15 01:37:08;;;;;;;;;43.00;32.75;;;;;10.34;70.91;102056.16;4982610;28;45893;-78
2021/11/15 01:39:33;;;;;;;;;41.75;35.00;;;;;10.40;71.11;102069.53;5000127;28;45543;-78
2021/11/15 01:41:58;;;;;;;;;39.75;29.25;;;;;10.41;70.85;102087.16;5000039;28;47121;-79
2021/11/15 01:44:24;;;;;;;;;36.00;34.00;;;;;10.40;71.08;102088.03;4999825;28;48880;-79
2021/11/15 01:46:49;;;;;;;;;38.00;35.75;;;;;10.34;71.23;102079.03;5000102;28;45285;-79
2021/11/15 01:49:15;;;;;;;;;39.50;35.00;;;;;10.38;70.89;102083.53;4999840;28;45406;-77
2021/11/15 01:51:40;;;;;;;;;38.00;31.00;;;;;10.34;70.84;102086.94;4999592;28;47493;-80
2021/11/15 01:54:06;;;;;;;;;42.00;36.00;;;;;10.29;70.80;102078.88;4999499;28;55545;-80
2021/11/15 01:56:31;;;;;;;;;43.00;33.50;;;;;10.32;70.97;102086.88;4999611;28;45404;-79
2021/11/15 01:58:56;;;;;;;;;45.25;33.75;;;;;10.25;70.92;102078.72;4997681;28;53876;-81
2021/11/15 02:01:22;;;;;;;;;40.00;33.25;;;;;10.29;70.76;102088.53;4965278;28;60227;-78
2021/11/15 02:03:47;;;;;;;;;45.00;34.75;;;;;10.23;70.85;102078.66;4999231;28;45334;-79
2021/11/15 02:06:13;;;;;;;;;30.50;28.25;;;;;10.23;70.80;102081.28;4998099;28;51868;-78
2021/11/15 02:08:38;;;;;;;;;39.25;33.50;;;;;10.26;70.86;102097.22;4982134;28;45169;-77
2021/11/15 02:11:04;;;;;;;;;37.50;34.25;;;;;10.23;70.95;102092.78;4999071;28;47376;-79
2021/11/15 02:13:30;;;;;;;;;44.00;37.25;;;;;10.22;70.73;102096.19;4998346;28;45305;-78
2021/11/15 02:15:55;;;;;;;;;47.75;38.00;;;;;10.21;71.16;102093.50;4991315;28;45531;-78
2021/11/15 02:18:21;;;;;;;;;38.75;34.25;;;;;10.23;70.96;102098.06;4999051;28;45434;-77
2021/11/15 02:20:53;;;;;;;;;40.50;32.50;;;;;10.24;71.13;102101.59;4997147;28;45739;-80
2021/11/15 02:23:19;;;;;;;;;50.50;35.75;;;;;10.23;70.87;102091.84;5002450;28;45774;-78
2021/11/15 02:25:46;;;;;;;;;40.25;33.50;;;;;10.24;70.90;102106.84;4996169;28;45350;-78
2021/11/15 02:28:11;;;;;;;;;36.25;25.50;;;;;10.18;70.76;102088.16;4999527;28;45411;-79
2021/11/15 02:30:36;;;;;;;;;43.50;35.50;;;;;10.23;70.95;102092.78;4999100;28;46691;-78
2021/11/15 02:33:02;;;;;;;;;39.00;31.25;;;;;10.19;70.93;102089.94;4999361;28;45402;-79
2021/11/15 02:35:28;;;;;;;;;42.75;35.50;;;;;10.22;70.88;102095.31;4999158;28;45460;-79
2021/11/15 02:37:53;;;;;;;;;43.25;35.50;;;;;10.19;70.98;102092.56;4998007;28;45510;-78
2021/11/15 02:40:21;;;;;;;;;45.25;37.00;;;;;10.19;70.71;102085.56;4997526;28;46476;-77
2021/11/15 02:42:47;;;;;;;;;46.25;36.25;;;;;10.18;70.94;102088.16;4998847;28;45303;-78
2021/11/15 02:45:12;;;;;;;;;46.50;36.50;;;;;10.17;70.77;102087.25;4997717;28;45350;-76
2021/11/15 02:47:38;;;;;;;;;49.50;38.75;;;;;10.19;70.88;102087.31;4999253;28;45330;-78
2021/11/15 02:50:04;;;;;;;;;49.00;36.00;;;;;10.14;71.01;102076.59;4998662;28;47342;-79
2021/11/15 02:52:30;;;;;;;;;41.25;34.75;;;;;10.19;70.71;102093.47;4998596;28;45564;-81
2021/11/15 02:54:58;;;;;;;;;39.75;35.75;;;;;10.19;70.97;102092.56;4998551;28;54565;-77
2021/11/15 02:57:23;;;;;;;;;48.00;36.00;;;;;10.21;71.04;102093.50;4998846;28;45571;-78
2021/11/15 02:59:49;;;;;;;;;41.50;36.00;;;;;10.21;70.86;102096.16;4997474;28;46682;-78
2021/11/15 03:02:14;;;;;;;;;44.50;36.50;;;;;10.18;70.83;102088.16;4998745;28;45298;-77
2021/11/15 03:04:40;;;;;;;;;46.00;36.50;;;;;10.19;70.63;102092.56;4997369;28;45223;-78
2021/11/15 03:07:05;;;;;;;;;47.50;35.25;;;;;10.18;70.88;102082.88;4998885;28;45476;-79
2021/11/15 03:09:30;;;;;;;;;49.50;38.25;;;;;10.16;70.61;102084.56;4997787;28;58948;-79
2021/11/15 03:11:56;;;;;;;;;48.25;35.75;;;;;10.14;70.51;102088.88;4998353;28;57157;-80
2021/11/15 03:14:21;;;;;;;;;41.25;34.25;;;;;10.07;70.60;102082.53;4997358;28;45513;-79
2021/11/15 03:16:47;;;;;;;;;42.75;36.00;;;;;10.06;70.34;102085.09;4996352;28;49771;-77
2021/11/15 03:19:12;;;;;;;;;42.25;35.75;;;;;10.03;70.55;102098.19;4998122;28;53112;-78
2021/11/15 03:21:37;;;;;;;;;45.75;35.00;;;;;9.98;70.36;102082.22;4993184;28;45402;-79
2021/11/15 03:24:03;;;;;;;;;43.25;34.25;;;;;10.00;70.78;102085.78;4994731;28;47189;-80
2021/11/15 03:26:28;;;;;;;;;41.50;36.75;;;;;9.98;70.41;102085.75;4998462;28;45498;-78
2021/11/15 03:28:54;;;;;;;;;50.50;39.00;;;;;9.96;70.60;102087.44;4997676;28;59261;-78
2021/11/15 03:31:22;;;;;;;;;41.00;32.25;;;;;9.93;70.65;102084.69;4998138;28;45451;-78
2021/11/15 03:33:48;;;;;;;;;38.75;32.50;;;;;9.89;70.42;102073.97;4998387;28;45359;-79
2021/11/15 03:36:14;;;;;;;;;48.00;35.75;;;;;9.92;70.41;102084.66;4998473;28;45308;-78
2021/11/15 03:38:40;;;;;;;;;36.75;35.25;;;;;9.86;70.59;102082.69;4996339;28;50315;-78
2021/11/15 03:41:06;;;;;;;;;40.00;32.50;;;;;9.87;70.57;102089.75;4997524;28;45211;-78
2021/11/15 03:43:31;;;;;;;;;40.50;32.00;;;;;9.86;70.53;102087.97;4980401;28;45241;-78
2021/11/15 03:45:57;;;;;;;;;45.00;36.75;;;;;9.86;70.42;102089.72;4998274;28;45509;-78
2021/11/15 03:48:23;;;;;;;;;51.00;39.00;;;;;9.85;70.51;102088.78;4997601;28;45544;-78
2021/11/15 03:50:54;;;;;;;;;47.50;39.50;;;;;9.81;70.70;102079.00;4996841;28;45267;-80
2021/11/15 03:53:19;;;;;;;;;42.50;37.00;;;;;9.86;70.69;102090.63;4996899;28;45468;-77
2021/11/15 03:55:45;;;;;;;;;46.75;34.50;;;;;9.87;70.66;102088.88;4997905;28;45228;-78
2021/11/15 03:58:10;;;;;;;;;51.25;39.75;;;;;9.85;70.49;102086.16;4979498;28;57806;-78
2021/11/15 04:00:39;;;;;;;;;40.00;34.75;;;;;9.84;70.45;102088.75;4997664;28;55727;-78
2021/11/15 04:03:08;;;;;;;;;47.00;39.50;;;;;9.87;70.68;102091.50;4997674;28;45287;-77
2021/11/15 04:05:37;;;;;;;;;39.25;33.75;;;;;9.82;70.68;102088.72;4996676;28;45290;-79
2021/11/15 04:08:03;;;;;;;;;39.75;30.50;;;;;9.85;70.86;102091.44;4980302;28;47091;-80
2021/11/15 04:10:37;;;;;;;;;52.00;37.25;;;;;9.86;70.60;102090.63;4996682;28;45361;-78
2021/11/15 04:13:11;;;;;;;;;44.75;36.25;;;;;9.88;70.91;102099.47;4997607;28;45248;-78
2021/11/15 04:15:37;;;;;;;;;43.75;36.50;;;;;9.88;70.63;102091.56;4997235;28;45353;-79
2021/11/15 04:18:04;;;;;;;;;44.00;37.75;;;;;9.89;70.81;102090.69;4989813;28;45813;-79
2021/11/15 04:20:31;;;;;;;;;52.00;37.25;;;;;9.89;70.88;102085.44;4997381;28;45572;-77
2021/11/15 04:22:56;;;;;;;;;47.25;36.00;;;;;9.90;70.94;102094.22;4997316;28;45499;-80
2021/11/15 04:25:21;;;;;;;;;44.50;34.75;;;;;9.89;70.86;102089.81;4997697;28;45460;-78
2021/11/15 04:27:48;;;;;;;;;47.75;38.25;;;;;9.84;70.78;102073.81;4996238;28;47584;-78
2021/11/15 04:30:13;;;;;;;;;43.75;39.00;;;;;9.86;70.72;102089.72;4996017;28;51338;-79
2021/11/15 04:32:42;;;;;;;;;46.25;37.25;;;;;9.75;70.68;102073.53;4995908;28;45828;-79
2021/11/15 04:35:10;;;;;;;;;45.25;32.75;;;;;9.89;71.13;102097.72;4996149;28;45191;-80
2021/11/15 04:37:36;;;;;;;;;39.50;34.50;;;;;9.87;70.70;102084.50;4979755;28;46624;-78
2021/11/15 04:40:01;;;;;;;;;41.50;36.00;;;;;9.90;70.93;102087.22;4997188;28;45458;-77
2021/11/15 04:42:27;;;;;;;;;42.50;37.25;;;;;9.80;70.91;102063.09;4997343;28;45346;-80
2021/11/15 04:44:52;;;;;;;;;44.75;34.75;;;;;9.91;70.60;102083.75;4997217;28;45442;-81
2021/11/15 04:47:19;;;;;;;;;43.25;37.00;;;;;9.87;70.59;102078.31;4996616;28;57712;-79
2021/11/15 04:49:45;;;;;;;;;44.00;38.00;;;;;9.90;70.81;102081.03;4997248;28;45492;-78
2021/11/15 04:52:10;;;;;;;;;42.75;35.75;;;;;9.88;70.63;102078.34;4997007;28;45157;-81
2021/11/15 04:54:36;;;;;;;;;45.50;36.25;;;;;9.83;70.81;102068.50;4995668;28;52339;-79
2021/11/15 04:57:01;;;;;;;;;50.75;38.25;;;;;9.83;70.69;102071.13;4995556;28;53462;-80
2021/11/15 04:59:27;;;;;;;;;44.00;35.50;;;;;9.81;70.66;102063.19;4996849;28;45370;-79
2021/11/15 05:01:52;;;;;;;;;43.75;32.50;;;;;9.71;70.58;102051.41;4996776;28;51918;-79
2021/11/15 05:04:17;;;;;;;;;43.50;37.50;;;;;9.83;70.60;102066.75;4996945;28;45544;-80
2021/11/15 05:06:43;;;;;;;;;45.75;34.50;;;;;9.85;70.66;102066.78;4996501;28;52483;-79
2021/11/15 05:09:08;;;;;;;;;44.00;35.50;;;;;9.84;70.75;102071.19;4995812;28;45402;-79
2021/11/15 05:11:34;;;;;;;;;40.75;35.50;;;;;9.74;70.34;102057.63;4995887;28;45330;-80
2021/11/15 05:13:59;;;;;;;;;46.25;38.25;;;;;9.83;70.87;102068.50;5107904;23;45739;-79
2021/11/15 05:16:25;;;;;;;;;56.00;39.25;;;;;9.83;70.79;102072.03;4994804;28;46474;-78
2021/11/15 05:18:50;;;;;;;;;51.50;36.25;;;;;9.82;70.79;102064.97;4995454;28;58977;-78
2021/11/15 05:21:16;;;;;;;;;46.00;36.25;;;;;9.81;70.90;102070.19;4996415;28;45884;-78
2021/11/15 05:23:41;;;;;;;;;55.00;41.75;;;;;9.84;70.97;102080.84;4996845;28;45206;-79
2021/11/15 05:26:08;;;;;;;;;49.75;39.00;;;;;9.83;70.54;102073.78;4996656;28;47862;-78
2021/11/15 05:28:33;;;;;;;;;48.25;39.00;;;;;9.76;70.63;102061.22;4995938;28;45471;-78
2021/11/15 05:30:59;;;;;;;;;54.25;38.75;;;;;9.77;70.72;102070.94;4996581;28;51158;-77
2021/11/15 05:33:24;;;;;;;;;37.00;34.50;;;;;9.82;70.57;102072.00;4995312;28;48576;-78
2021/11/15 05:35:49;;;;;;;;;47.00;38.00;;;;;9.84;70.56;102079.09;4996239;28;47359;-78
2021/11/15 05:38:15;;;;;;;;;59.00;38.75;;;;;9.86;70.67;102072.16;4996303;28;45503;-78
2021/11/15 05:40:40;;;;;;;;;55.25;40.00;;;;;9.90;70.75;102081.94;4996415;28;45352;-79
2021/11/15 05:43:06;;;;;;;;;35.75;31.25;;;;;9.93;71.01;102079.41;4996654;28;45485;-80
2021/11/15 05:45:31;;;;;;;;;53.00;37.00;;;;;9.94;70.81;102083.84;4996736;28;45647;-80
2021/11/15 05:47:57;;;;;;;;;50.00;38.00;;;;;9.96;70.52;102082.16;4995304;28;45383;-79
2021/11/15 05:50:23;;;;;;;;;48.00;37.50;;;;;10.02;70.53;102094.66;4996645;28;52105;-78
2021/11/15 05:52:48;;;;;;;;;50.50;40.00;;;;;10.03;70.66;102098.19;4996246;28;45422;-81
2021/11/15 05:55:19;;;;;;;;;50.50;37.50;;;;;10.07;70.78;102108.03;4995473;28;45792;-80
2021/11/15 05:57:44;;;;;;;;;54.25;39.75;;;;;10.10;70.87;102101.06;4996500;28;45413;-78
2021/11/15 06:00:12;;;;;;;;;53.50;38.75;;;;;10.12;70.78;102106.41;4996306;28;45368;-81
2021/11/15 06:02:37;;;;;;;;;44.75;36.00;;;;;10.16;70.40;102110.94;4996245;28;45286;-78
2021/11/15 06:05:04;;;;;;;;;44.50;35.00;;;;;10.17;70.71;102097.81;4997397;28;46287;-79
2021/11/15 06:07:29;;;;;;;;;43.25;35.00;;;;;10.18;70.75;102096.97;4999647;28;45279;-79
2021/11/15 06:09:54;;;;;;;;;47.50;37.00;;;;;10.21;70.50;102104.06;4999010;28;51533;-78
2021/11/15 06:12:20;;;;;;;;;47.00;37.25;;;;;10.27;70.70;102111.31;4997357;28;45497;-81
2021/11/15 06:14:45;;;;;;;;;47.50;37.50;;;;;10.29;70.55;102105.28;5002011;28;53251;-78
2021/11/15 06:17:11;;;;;;;;;41.25;33.25;;;;;10.33;70.67;102111.53;4998480;28;45398;-78
2021/11/15 06:19:36;;;;;;;;;38.00;31.00;;;;;10.32;70.58;102110.63;4999013;28;45318;-81
2021/11/15 06:22:02;;;;;;;;;38.25;30.75;;;;;10.31;70.54;102106.19;4997835;28;48200;-80
2021/11/15 06:24:28;;;;;;;;;44.00;37.00;;;;;10.35;70.33;102101.94;4997347;28;47404;-77
2021/11/15 06:26:53;;;;;;;;;42.25;35.75;;;;;10.43;70.35;102110.97;4997396;28;45414;-82
2021/11/15 06:29:18;;;;;;;;;40.25;35.75;;;;;10.44;70.48;102110.16;4994404;28;48986;-79
2021/11/15 06:31:44;;;;;;;;;43.25;35.75;;;;;10.44;70.17;102113.69;4996458;28;51357;-75
2021/11/15 06:34:09;;;;;;;;;40.50;34.50;;;;;10.44;70.19;102111.03;4997192;28;46479;-78
2021/11/15 06:36:35;;;;;;;;;46.50;31.75;;;;;10.42;70.09;102110.09;4996948;28;57185;-81
2021/11/15 06:39:00;;;;;;;;;31.25;29.50;;;;;10.45;70.06;102111.94;4994335;28;45351;-80
2021/11/15 06:41:26;;;;;;;;;40.75;29.25;;;;;10.44;70.10;102110.16;4996614;28;45560;-79
2021/11/15 06:43:51;;;;;;;;;37.75;32.00;;;;;10.45;70.40;102125.16;4993994;28;47803;-81
2021/11/15 06:46:17;;;;;;;;;42.00;31.50;;;;;10.47;70.17;102121.69;4955501;28;45589;-77
2021/11/15 06:48:42;;;;;;;;;41.00;35.50;;;;;10.49;70.39;102122.66;4996737;28;45299;-78
2021/11/15 06:51:12;;;;;;;;;41.50;32.25;;;;;10.49;70.22;102127.00;4994629;28;45482;-79
2021/11/15 06:53:38;;;;;;;;;36.00;33.75;;;;;10.48;70.00;102118.19;4990335;28;47587;-79
2021/11/15 06:56:04;;;;;;;;;34.75;26.50;;;;;10.51;70.18;102129.72;4992620;28;45732;-80
2021/11/15 06:58:29;;;;;;;;;35.75;29.50;;;;;10.54;70.05;102130.69;4992752;28;45602;-83
2021/11/15 07:00:55;;;;;;;;;34.75;31.50;;;;;10.54;70.32;102130.69;4979554;28;45315;-76
2021/11/15 07:03:20;;;;;;;;;44.50;32.00;;;;;10.54;69.84;102132.44;4994482;28;61312;-82
2021/11/15 07:05:45;;;;;;;;;31.75;27.00;;;;;10.57;69.91;102141.38;4995359;28;46647;-79
2021/11/15 07:08:11;;;;;;;;;33.00;30.00;;;;;10.52;70.19;102126.22;4998274;28;45298;-80
2021/11/15 07:10:37;;;;;;;;;34.75;28.75;;;;;10.57;69.79;102144.00;4996256;28;45626;-81
2021/11/15 07:13:03;;;;;;;;;40.00;35.00;;;;;10.58;69.86;102152.84;4995819;28;46128;-79
2021/11/15 07:15:28;;;;;;;;;36.00;32.00;;;;;10.61;69.99;102158.22;4995630;28;45630;-79
2021/11/15 07:17:54;;;;;;;;;33.25;27.50;;;;;10.58;69.90;102150.19;4996633;28;45320;-78
2021/11/15 07:20:28;;;;;;;;;42.00;32.00;;;;;10.64;69.83;102161.84;4985594;28;45470;-79
2021/11/15 07:22:54;;;;;;;;;44.25;33.75;;;;;10.65;69.94;102158.38;4990101;28;45756;-78
2021/11/15 07:25:20;;;;;;;;;37.75;31.75;;;;;10.55;69.72;102126.34;4992917;28;60936;-78
2021/11/15 07:27:49;;;;;;;;;34.00;32.50;;;;;10.63;69.86;102151.22;4991478;28;45611;-79
2021/11/15 07:30:16;;;;;;;;;34.00;30.75;;;;;10.64;69.80;102145.09;4993779;28;45704;-79
2021/11/15 07:32:41;;;;;;;;;42.00;32.25;;;;;10.70;69.84;102154.09;4991987;28;47971;-79
2021/11/15 07:35:07;;;;;;;;;35.75;31.00;;;;;10.69;69.55;102154.97;4995452;28;47254;-79
2021/11/15 07:37:32;;;;;;;;;39.00;31.25;;;;;10.69;69.77;102151.41;4995576;28;45497;-79
2021/11/15 07:39:57;;;;;;;;;37.00;29.25;;;;;10.71;69.62;102161.22;4995153;28;45679;-79
2021/11/15 07:42:23;;;;;;;;;41.25;34.75;;;;;10.71;69.69;102168.25;4984916;28;46208;-78
2021/11/15 07:44:48;;;;;;;;;39.75;29.50;;;;;10.75;69.82;102172.75;4993665;28;45529;-79
2021/11/15 07:47:15;;;;;;;;;43.50;35.50;;;;;10.78;69.63;102169.31;4990912;28;45791;-77
2021/11/15 07:49:40;;;;;;;;;39.00;29.00;;;;;10.78;69.77;102170.22;4988699;28;46023;-75
2021/11/15 07:52:06;;;;;;;;;40.00;32.75;;;;;10.79;69.76;102158.78;4994820;28;46997;-74
2021/11/15 07:54:31;;;;;;;;;43.00;31.00;;;;;10.85;69.58;102180.13;4994413;28;45613;-75
2021/11/15 07:56:57;;;;;;;;;38.25;31.25;;;;;10.85;69.56;102176.56;4993566;28;45541;-75
2021/11/15 07:59:22;;;;;;;;;41.00;30.25;;;;;10.80;69.30;102184.34;4994108;28;45651;-74
2021/11/15 08:01:48;;;;;;;;;44.00;32.00;;;;;10.77;69.06;102181.63;4995638;28;46512;-75
2021/11/15 08:04:13;;;;;;;;;34.25;29.00;;;;;10.72;69.16;102180.59;4993068;28;45401;-74
2021/11/15 08:06:39;;;;;;;;;37.25;29.50;;;;;10.73;69.30;102195.59;4995177;28;45619;-74
2021/11/15 08:09:04;;;;;;;;;26.75;26.75;;;;;10.66;69.31;102185.69;4996103;28;45564;-74
2021/11/15 08:11:33;;;;;;;;;32.00;22.25;;;;;10.67;69.28;102190.13;4991526;28;59853;-74
2021/11/15 08:13:59;;;;;;;;;37.50;27.25;;;;;10.65;69.50;102194.44;4992961;28;45560;-75
2021/11/15 08:16:24;;;;;;;;;28.50;26.25;;;;;10.60;69.14;102174.88;4994601;28;48163;-74
2021/11/15 08:18:49;;;;;;;;;31.50;26.00;;;;;10.64;69.28;102190.91;4994804;28;45593;-74
2021/11/15 08:21:18;;;;;;;;;25.00;23.50;;;;;10.65;69.39;102183.88;4990438;28;45770;-75
2021/11/15 08:23:47;;;;;;;;;35.00;26.75;;;;;10.70;69.31;102196.38;4978198;28;45733;-75
2021/11/15 08:26:47;;;;;;;;;33.00;24.75;;;;;10.73;69.35;102192.94;4974433;28;45465;-74
2021/11/15 08:29:13;;;;;;;;;31.50;25.75;;;;;10.67;69.70;102183.09;4993157;28;45532;-74
2021/11/15 08:31:39;;;;;;;;;30.75;25.75;;;;;10.75;68.91;102201.81;4994259;28;45540;-74
2021/11/15 08:34:05;;;;;;;;;31.25;23.75;;;;;10.66;68.95;102190.97;4993334;28;45508;-75
2021/11/15 08:36:30;;;;;;;;;37.50;29.00;;;;;10.70;69.31;102200.75;4994316;28;45534;-75
2021/11/15 08:38:58;;;;;;;;;31.00;24.75;;;;;10.65;69.16;102192.72;4995252;28;45378;-76
2021/11/15 08:41:32;;;;;;;;;35.00;29.75;;;;;10.72;69.50;102201.72;4995828;28;47807;-78
2021/11/15 08:43:58;;;;;;;;;42.25;28.75;;;;;10.68;69.18;102184.88;4996386;28;45331;-76
2021/11/15 08:46:25;;;;;;;;;36.25;29.00;;;;;10.77;69.59;102189.56;4996475;28;45548;-76
2021/11/15 08:48:50;;;;;;;;;29.50;26.75;;;;;10.79;69.22;102195.78;4995181;28;45310;-77
2021/11/15 08:51:16;;;;;;;;;38.00;28.25;;;;;10.82;69.33;102189.72;4994595;28;47229;-77
2021/11/15 08:53:42;;;;;;;;;26.00;22.75;;;;;10.87;69.41;102188.13;4994852;28;45516;-77
2021/11/15 08:56:07;;;;;;;;;38.25;30.50;;;;;10.87;69.58;102188.13;4994854;28;45858;-77
2021/11/15 08:58:33;;;;;;;;;44.25;30.75;;;;;10.94;69.03;102195.38;4996554;28;45497;-77
2021/11/15 09:00:59;;;;;;;;;36.00;27.50;;;;;10.94;69.10;102193.63;4995175;28;47392;-75
2021/11/15 09:03:24;;;;;;;;;29.00;28.75;;;;;10.97;69.07;102184.88;4994004;28;46511;-76
2021/11/15 09:05:50;;;;;;;;;28.75;24.25;;;;;10.99;69.27;102191.13;4995504;28;45353;-76
2021/11/15 09:08:17;;;;;;;;;34.75;31.75;;;;;11.00;69.12;102183.25;4995132;28;45473;-76
2021/11/15 09:10:42;;;;;;;;;28.25;28.00;;;;;10.97;69.23;102169.94;4995618;28;45682;-77
2021/11/15 09:13:08;;;;;;;;;34.50;30.50;;;;;11.05;68.85;102179.84;4994643;28;45461;-77
2021/11/15 09:15:33;;;;;;;;;40.25;27.75;;;;;11.02;68.71;102178.91;4992083;28;54342;-77
2021/11/15 09:17:59;;;;;;;;;30.00;27.50;;;;;11.02;69.23;102176.28;4995239;28;45854;-76
2021/11/15 09:20:25;;;;;;;;;33.00;30.25;;;;;11.06;68.97;102171.97;4994893;28;58839;-76
2021/11/15 09:22:52;;;;;;;;;32.00;26.75;;;;;11.10;68.69;102175.59;4995124;28;46651;-76
2021/11/15 09:25:17;;;;;;;;;30.75;28.00;;;;;11.12;68.80;102173.88;4994540;28;45559;-77
2021/11/15 09:27:42;;;;;;;;;33.50;25.75;;;;;11.13;68.79;102176.59;4995338;28;49784;-76
2021/11/15 09:30:09;;;;;;;;;38.25;31.25;;;;;11.16;68.82;102174.03;4993670;28;46303;-76
2021/11/15 09:32:34;;;;;;;;;35.50;27.25;;;;;11.12;68.76;102166.84;4993421;28;45452;-77
2021/11/15 09:35:00;;;;;;;;;34.50;25.00;;;;;11.14;68.74;102172.22;4994718;28;55691;-77
2021/11/15 09:37:27;;;;;;;;;30.50;22.50;;;;;11.19;68.88;102187.34;4994590;28;45286;-78
2021/11/15 09:39:55;;;;;;;;;36.75;24.25;;;;;11.20;68.91;102181.22;4990163;28;47610;-77
2021/11/15 09:42:20;;;;;;;;;31.50;26.00;;;;;11.20;68.99;102189.16;4997955;28;45473;-77
2021/11/15 09:44:46;;;;;;;;;36.50;25.25;;;;;11.20;68.89;102182.97;4999435;28;45831;-78
2021/11/15 09:47:11;;;;;;;;;34.75;25.00;;;;;11.23;68.66;102186.56;4998295;28;45508;-77
2021/11/15 09:49:37;;;;;;;;;33.00;28.25;;;;;11.24;68.88;102191.03;4997784;28;46504;-77
2021/11/15 09:52:03;;;;;;;;;33.00;28.00;;;;;11.27;68.72;102203.44;4997300;28;45572;-77
2021/11/15 09:54:28;;;;;;;;;34.00;23.75;;;;;11.29;69.01;102204.38;4997426;28;45398;-78
2021/11/15 09:56:56;;;;;;;;;44.00;29.25;;;;;11.30;68.94;102207.94;4998585;28;45693;-77
2021/11/15 09:59:24;;;;;;;;;28.00;23.00;;;;;11.31;68.60;102210.63;4990877;28;45749;-77
2021/11/15 10:01:50;;;;;;;;;25.25;23.75;;;;;11.34;68.84;102209.81;4998131;28;45570;-76
2021/11/15 10:04:18;;;;;;;;;31.75;24.25;;;;;11.30;68.57;102198.25;4996737;28;45508;-76
2021/11/15 10:06:43;;;;;;;;;39.75;28.00;;;;;11.35;68.47;102190.47;4999060;28;45389;-77
2021/11/15 10:09:09;;;;;;;;;33.75;24.50;;;;;11.36;68.50;102190.50;4997612;28;46176;-77
2021/11/15 10:11:39;;;;;;;;;32.00;27.50;;;;;11.36;68.28;102192.25;4997290;28;50877;-77
2021/11/15 10:14:04;;;;;;;;;28.25;22.00;;;;;11.35;68.37;102196.66;4997264;28;45441;-76
2021/11/15 10:16:34;;;;;;;;;29.50;22.50;;;;;11.31;68.34;102194.75;4994579;28;54526;-77
2021/11/15 10:19:03;;;;;;;;;36.75;26.50;;;;;11.37;68.21;102196.69;4997696;28;47025;-76
2021/11/15 10:21:40;;;;;;;;;28.25;22.25;;;;;11.39;68.94;102190.56;4997472;28;45389;-75
2021/11/15 10:24:09;;;;;;;;;30.25;24.50;;;;;11.41;68.48;102188.00;4998246;28;45448;-77
2021/11/15 10:26:41;;;;;;;;;35.25;27.00;;;;;11.41;68.28;102188.88;4996915;28;45456;-77
2021/11/15 10:29:19;;;;;;;;;28.50;25.50;;;;;11.41;67.81;102180.94;4997494;28;45723;-76
2021/11/15 10:32:11;;;;;;;;;30.00;24.50;;;;;11.40;68.18;102186.19;4995384;28;45491;-76
2021/11/15 10:34:45;;;;;;;;;30.00;25.50;;;;;11.38;68.29;102188.78;4997033;28;45557;-76
2021/11/15 10:37:16;;;;;;;;;33.25;28.25;;;;;11.40;68.18;102194.09;4997075;28;45617;-76
2021/11/15 10:39:52;;;;;;;;;33.50;26.00;;;;;11.40;68.12;102183.53;4997529;28;46567;-76
2021/11/15 10:42:23;;;;;;;;;29.25;23.50;;;;;11.38;68.09;102183.50;4997146;28;45552;-76
2021/11/15 10:44:59;;;;;;;;;39.00;27.25;;;;;11.37;68.19;102179.06;4996597;28;47142;-75
2021/11/15 10:47:44;;;;;;;;;37.00;29.00;;;;;11.37;68.42;102175.53;4996706;28;45544;-77
2021/11/15 10:50:29;;;;;;;;;37.50;27.75;;;;;11.36;68.35;102172.00;4995209;28;46493;-77
2021/11/15 10:53:22;;;;;;;;;37.25;24.25;;;;;11.42;68.39;102174.81;4992973;28;45383;-77
2021/11/15 10:56:27;;;;;;;;;26.50;22.25;;;;;11.45;68.27;102168.69;4991128;28;45534;-76
2021/11/15 10:58:54;;;;;;;;;30.75;23.25;;;;;11.43;68.41;102160.72;4993314;28;45564;-75
2021/11/15 11:01:21;;;;;;;;;34.25;23.75;;;;;11.50;68.24;102157.41;4996041;28;46878;-75
2021/11/15 11:03:46;;;;;;;;;34.50;25.75;;;;;11.50;68.09;102159.16;4995182;28;45519;-75
2021/11/15 11:06:15;;;;;;;;;30.25;27.25;;;;;11.51;68.10;102153.03;4995104;28;45941;-75
2021/11/15 11:08:41;;;;;;;;;34.50;25.50;;;;;11.51;68.14;102153.91;4997857;28;45528;-74
2021/11/15 11:11:10;;;;;;;;;36.00;24.25;;;;;11.52;68.25;102152.16;4997036;28;47387;-75